Okoboji, IA (51355)

9:12 AM CST on March 01, 2015 (GMT -0600)
Milford Fire Station | Change Station
CLOSE
Current Station
Personal Weather Station
Location: Milford, IA
Elevation: 1443 ft
Nearby Weather Stations

Elev 1443 ft 43.33 °N, 95.15 °W | Updated 15 seconds ago

Overcast
Overcast
15.6 °F
Feels Like 7 °F
N
6.0
Wind Variable Wind from West
Gusts 6.0 mph

Today
High -- | Low -- °F
--% Chance of Precip.
Yesterday
High -- | Low -- °F
Precip. -- in
6:57 AM 6:09 PM
Waxing Gibbous, 85% visible
Pressure 30.40 in
Visibility 10.0 miles
Clouds Mostly Cloudy 7000 ft
Overcast 9000 ft
Windchill 7 °F
Dew Point 12 °F
Humidity 87%
Rainfall 0.00 in
Snow Depth Not available.
UV 0 out of 12
Pollen .40 out of 12
Air Quality Not available.
Flu Activity Not available.
METAR KSPW 011453Z AUTO 30007KT 10SM BKN070 OVC090 M08/M11 A3032 RMK AO2 SLP292 T10831111 53015 TSNO

More Conditions Fewer Conditions

Pressure 30.40 in
Visibility 10.0 miles
Clouds Mostly Cloudy 7000 ft
Overcast 9000 ft
Windchill 7 °F
Dew Point 12 °F
Humidity 87%
Rainfall 0.00 in
Snow Depth Not available.
UV 0 out of 12
Pollen .40 out of 12
Air Quality Not available.
Flu Activity Not available.
METAR KSPW 011453Z AUTO 30007KT 10SM BKN070 OVC090 M08/M11 A3032 RMK AO2 SLP292 T10831111 53015 TSNO

More Conditions Fewer Conditions

10-Day Weather Forecast

Almanac

Astronomy

Mar. 01, 2015 Rise Set
Actual Time
Civil Twilight
Nautical Twilight
Astronomical Twilight
Moon
Length of Visible Light
Length of Day
Tomorrow will be .
, % of the Moon is Illuminated

Today's Extremes

State Highs State Lows

Community

WunderPhotos

Upload Photos

1,801,410 photos uploaded!

WunderBlogs® & News

Nearby

Air Quality

  Air Quality AQ Index Pollutant
Not available.

Snow Depth

Station Depth Elevation

Earthquake Activity

City Distance Mag. Time & Date
Minimum magnitude displayed is 2.5.

Coastal Water Temperatures

Place Temperature

Nearby Weather Stations